createdAt,value
2022-08-14T00:01:54.943Z,2.40
2022-08-14T00:04:31.965Z,2.97
2022-08-14T00:07:03.573Z,2.90
2022-08-14T00:09:33.068Z,2.90
2022-08-14T00:14:27.198Z,3.30
2022-08-14T00:16:56.127Z,2.93
2022-08-14T00:19:23.256Z,3.03
2022-08-14T00:21:51.050Z,3.25
2022-08-14T00:24:23.198Z,3.22
2022-08-14T00:26:56.654Z,3.13
2022-08-14T00:29:25.305Z,4.70
2022-08-14T00:31:56.371Z,3.70
2022-08-14T00:34:37.951Z,4.30
2022-08-14T00:37:11.758Z,4.43
2022-08-14T00:39:40.518Z,5.25
2022-08-14T00:42:21.474Z,4.32
2022-08-14T00:44:56.600Z,5.10
2022-08-14T00:47:26.875Z,5.25
2022-08-14T00:49:56.255Z,5.30
2022-08-14T00:52:24.235Z,5.38
2022-08-14T00:54:58.020Z,5.60
2022-08-14T00:57:33.622Z,5.65
2022-08-14T01:00:04.063Z,5.35
2022-08-14T01:02:31.907Z,5.53
2022-08-14T01:05:00.885Z,7.05
2022-08-14T01:07:47.291Z,7.00
2022-08-14T01:10:17.917Z,7.57
2022-08-14T01:12:45.324Z,8.88
2022-08-14T01:15:16.759Z,9.95
2022-08-14T01:18:02.223Z,10.03
2022-08-14T01:20:48.180Z,9.85
2022-08-14T01:23:18.749Z,8.52
2022-08-14T01:28:46.876Z,9.02
2022-08-14T01:31:09.929Z,11.40
2022-08-14T01:33:59.654Z,10.85
2022-08-14T01:36:28.123Z,9.20
2022-08-14T01:38:58.287Z,9.95
2022-08-14T01:41:29.968Z,10.77
2022-08-14T01:44:02.667Z,9.43
2022-08-14T01:46:33.497Z,10.10
2022-08-14T01:49:05.734Z,10.40
2022-08-14T01:51:34.816Z,9.70
2022-08-14T01:54:15.639Z,11.77
2022-08-14T01:56:45.335Z,13.60
2022-08-14T01:59:21.617Z,11.20
2022-08-14T02:01:58.187Z,12.07
2022-08-14T02:04:55.147Z,11.52
2022-08-14T02:07:34.304Z,12.82
2022-08-14T02:10:06.852Z,13.57
2022-08-14T02:12:33.977Z,15.00
2022-08-14T02:15:02.248Z,12.20
2022-08-14T02:17:29.272Z,12.43
2022-08-14T02:19:58.708Z,11.03
2022-08-14T02:22:32.701Z,10.15
2022-08-14T02:25:13.442Z,10.68
2022-08-14T02:28:24.751Z,10.88
2022-08-14T02:30:33.914Z,10.82
2022-08-14T02:33:01.726Z,11.90
2022-08-14T02:35:32.786Z,11.43
2022-08-14T02:38:00.959Z,12.07
2022-08-14T02:40:34.051Z,13.55
2022-08-14T02:43:05.525Z,12.02
2022-08-14T02:45:38.426Z,12.27
2022-08-14T02:49:04.277Z,13.48
2022-08-14T02:51:00.569Z,13.88
2022-08-14T02:53:29.235Z,14.47
2022-08-14T02:56:02.905Z,11.10
2022-08-14T02:58:32.486Z,10.55
2022-08-14T03:01:01.602Z,11.98
2022-08-14T03:03:31.504Z,11.70
2022-08-14T03:05:59.122Z,10.90
2022-08-14T03:08:31.859Z,11.77
2022-08-14T03:11:00.570Z,12.13
2022-08-14T03:13:29.627Z,12.65
2022-08-14T03:15:58.219Z,10.93
2022-08-14T03:18:31.403Z,11.68
2022-08-14T03:21:05.168Z,12.00
2022-08-14T03:23:36.607Z,12.00
2022-08-14T03:26:13.027Z,12.23
2022-08-14T03:28:47.493Z,11.82
2022-08-14T03:31:15.163Z,12.82
2022-08-14T03:33:43.076Z,13.32
2022-08-14T03:37:38.639Z,12.77
2022-08-14T03:39:14.764Z,13.75
2022-08-14T03:41:52.445Z,14.30
2022-08-14T03:45:25.532Z,14.23
2022-08-14T03:47:06.785Z,15.27
2022-08-14T03:49:35.377Z,11.70
2022-08-14T03:52:27.821Z,11.18
2022-08-14T03:54:56.006Z,12.48
2022-08-14T03:57:23.821Z,12.13
2022-08-14T03:59:51.108Z,12.05
2022-08-14T04:02:37.109Z,12.55
2022-08-14T04:05:12.004Z,12.25
2022-08-14T04:07:49.902Z,13.80
2022-08-14T04:10:32.312Z,11.82
2022-08-14T04:13:04.076Z,12.95
2022-08-14T04:15:55.760Z,11.75
2022-08-14T04:18:21.870Z,11.88
2022-08-14T04:20:54.982Z,11.07
2022-08-14T04:23:29.566Z,12.57
2022-08-14T04:26:03.926Z,10.85
2022-08-14T04:29:05.375Z,11.93
2022-08-14T04:31:24.932Z,11.65
2022-08-14T04:34:06.705Z,10.52
2022-08-14T04:36:54.969Z,11.85
2022-08-14T04:39:41.920Z,12.75
2022-08-14T04:42:32.349Z,12.50
2022-08-14T04:45:00.807Z,11.40
2022-08-14T04:47:46.718Z,12.10
2022-08-14T04:50:13.732Z,11.63
2022-08-14T04:52:41.077Z,11.75
2022-08-14T04:55:10.595Z,11.05
2022-08-14T04:57:39.306Z,10.03
2022-08-14T05:00:07.500Z,9.93
2022-08-14T05:02:43.686Z,11.93
2022-08-14T05:05:10.714Z,10.45
2022-08-14T05:07:54.301Z,10.63
2022-08-14T05:10:26.153Z,10.55
2022-08-14T05:13:14.049Z,11.07
2022-08-14T05:15:41.767Z,11.00
2022-08-14T05:18:17.673Z,10.88
2022-08-14T05:21:57.842Z,10.18
2022-08-14T05:23:48.788Z,10.68
2022-08-14T05:26:18.222Z,10.95
2022-08-14T05:28:46.134Z,10.90
2022-08-14T05:31:14.305Z,9.70
2022-08-14T05:33:54.900Z,9.38
2022-08-14T05:36:25.274Z,10.15
2022-08-14T05:38:54.236Z,9.05
2022-08-14T05:41:22.399Z,10.10
2022-08-14T05:43:51.120Z,9.93
2022-08-14T05:46:19.230Z,9.63
2022-08-14T05:48:53.922Z,9.60
2022-08-14T05:51:21.375Z,9.68
2022-08-14T05:54:01.616Z,9.00
2022-08-14T05:56:37.154Z,8.80
2022-08-14T05:59:04.182Z,9.00
2022-08-14T06:01:32.501Z,9.27
2022-08-14T06:04:00.517Z,8.50
2022-08-14T06:06:27.490Z,8.60
2022-08-14T06:08:54.467Z,7.85
2022-08-14T06:11:27.905Z,7.72
2022-08-14T06:13:58.726Z,8.38
2022-08-14T06:16:25.823Z,7.50
2022-08-14T06:18:53.382Z,7.90
2022-08-14T06:21:22.538Z,7.65
2022-08-14T06:23:49.835Z,8.13
2022-08-14T06:26:20.707Z,7.22
2022-08-14T06:28:52.022Z,5.88
2022-08-14T06:31:20.858Z,6.50
2022-08-14T06:35:04.522Z,7.32
2022-08-14T06:36:39.395Z,6.78
2022-08-14T06:39:09.918Z,6.38
2022-08-14T06:41:58.623Z,7.57
2022-08-14T06:44:30.554Z,7.45
2022-08-14T06:47:01.790Z,7.13
2022-08-14T06:49:30.120Z,10.15
2022-08-14T06:51:57.671Z,8.63
2022-08-14T06:54:31.760Z,7.75
2022-08-14T06:56:59.131Z,9.57
2022-08-14T06:59:26.315Z,9.55
2022-08-14T07:02:13.387Z,7.35
2022-08-14T07:04:59.238Z,7.30
2022-08-14T07:07:28.871Z,8.35
2022-08-14T07:09:56.024Z,7.63
2022-08-14T07:12:52.053Z,6.55
2022-08-14T07:15:11.119Z,5.68
2022-08-14T07:17:51.879Z,5.85
2022-08-14T07:20:31.007Z,5.60
2022-08-14T07:23:07.341Z,5.03
2022-08-14T07:25:37.753Z,5.40
2022-08-14T07:28:23.789Z,5.40
2022-08-14T07:30:52.564Z,5.70
2022-08-14T07:33:24.404Z,4.60
2022-08-14T07:35:58.675Z,4.60
2022-08-14T07:38:32.063Z,4.60
2022-08-14T07:41:02.638Z,5.15
2022-08-14T07:43:29.892Z,4.68
2022-08-14T07:45:56.814Z,5.20
2022-08-14T07:48:25.127Z,4.95
2022-08-14T07:50:52.878Z,4.72
2022-08-14T07:53:22.479Z,4.93
2022-08-14T07:56:09.045Z,4.28
2022-08-14T07:58:38.817Z,5.17
2022-08-14T08:01:18.951Z,3.85
2022-08-14T08:03:56.903Z,4.78
2022-08-14T08:06:27.675Z,4.28
2022-08-14T08:09:01.000Z,3.95
2022-08-14T08:11:34.741Z,3.90
2022-08-14T08:14:10.644Z,4.22
2022-08-14T08:16:46.570Z,4.32
2022-08-14T08:19:14.312Z,4.70
2022-08-14T08:21:43.590Z,4.20
2022-08-14T08:24:15.018Z,4.57
2022-08-14T08:26:47.054Z,4.30
2022-08-14T08:29:20.140Z,4.57
2022-08-14T08:34:20.480Z,4.32
2022-08-14T08:36:50.746Z,4.68
2022-08-14T08:39:22.644Z,3.90
2022-08-14T08:41:53.292Z,3.90
2022-08-14T08:44:31.865Z,3.42
2022-08-14T08:47:06.198Z,3.67
2022-08-14T08:49:48.464Z,4.03
2022-08-14T08:52:29.181Z,3.55
2022-08-14T08:54:58.783Z,3.72
2022-08-14T08:57:25.875Z,3.63
2022-08-14T08:59:54.985Z,3.70
2022-08-14T09:02:27.518Z,3.35
2022-08-14T09:05:02.130Z,3.30
2022-08-14T09:07:29.254Z,3.38
2022-08-14T09:09:59.780Z,3.50
2022-08-14T09:12:31.623Z,3.40
2022-08-14T09:15:01.946Z,3.10
2022-08-14T09:17:29.032Z,3.00
2022-08-14T09:19:56.475Z,2.80
2022-08-14T09:22:35.824Z,2.90
2022-08-14T09:25:07.152Z,2.83
2022-08-14T09:27:36.760Z,2.80
2022-08-14T09:30:31.137Z,2.80
2022-08-14T09:33:12.442Z,2.95
2022-08-14T09:36:14.124Z,2.88
2022-08-14T09:39:21.243Z,2.85
2022-08-14T09:42:20.903Z,2.78
2022-08-14T09:44:56.039Z,2.63
2022-08-14T09:47:44.988Z,2.80
2022-08-14T09:50:31.428Z,2.72
2022-08-14T09:53:00.684Z,3.10
2022-08-14T09:55:36.895Z,2.80
2022-08-14T09:58:19.563Z,2.65
2022-08-14T10:00:50.383Z,2.72
2022-08-14T10:03:34.247Z,2.88
2022-08-14T10:06:09.920Z,3.00
2022-08-14T10:08:42.480Z,2.75
2022-08-14T10:11:17.994Z,2.70
2022-08-14T10:13:53.137Z,2.88
2022-08-14T10:16:29.185Z,2.45
2022-08-14T10:19:04.632Z,2.75
2022-08-14T10:21:38.751Z,3.05
2022-08-14T10:24:36.504Z,3.00
2022-08-14T10:27:04.174Z,2.78
2022-08-14T10:29:37.580Z,2.80
2022-08-14T10:32:18.233Z,3.22
2022-08-14T10:34:52.692Z,3.00
2022-08-14T10:37:23.731Z,3.20
2022-08-14T10:40:01.890Z,2.58
2022-08-14T10:42:38.036Z,3.05
2022-08-14T10:45:20.530Z,2.80
2022-08-14T10:48:08.592Z,2.80
2022-08-14T10:50:41.449Z,2.65
2022-08-14T10:53:09.629Z,2.50
2022-08-14T10:55:45.587Z,2.55
2022-08-14T10:58:14.712Z,2.65
2022-08-14T11:00:47.233Z,2.63
2022-08-14T11:03:19.853Z,2.40
2022-08-14T11:05:55.667Z,2.50
2022-08-14T11:08:33.133Z,2.40
2022-08-14T11:11:06.010Z,2.60
2022-08-14T11:13:33.702Z,2.53
2022-08-14T11:16:01.849Z,2.23
2022-08-14T11:18:36.300Z,2.50
2022-08-14T11:23:40.972Z,2.35
2022-08-14T11:26:10.985Z,2.45
2022-08-14T11:28:49.831Z,2.60
2022-08-14T11:31:22.077Z,2.30
2022-08-14T11:33:51.330Z,2.17
2022-08-14T11:36:19.004Z,2.25
2022-08-14T11:38:46.461Z,2.67
2022-08-14T11:41:14.388Z,2.33
2022-08-14T11:43:58.530Z,2.50
2022-08-14T11:46:29.793Z,2.20
2022-08-14T11:49:02.294Z,1.90
2022-08-14T11:51:50.802Z,2.10
2022-08-14T11:54:19.438Z,2.20
2022-08-14T11:56:50.765Z,2.20
2022-08-14T11:59:18.985Z,2.30
2022-08-14T12:01:46.354Z,2.17
2022-08-14T12:04:32.394Z,2.22
2022-08-14T12:07:01.389Z,2.45
2022-08-14T12:09:32.558Z,2.42
2022-08-14T12:12:00.116Z,2.08
2022-08-14T12:14:30.903Z,2.17
2022-08-14T12:17:12.613Z,2.40
2022-08-14T12:19:53.895Z,2.05
2022-08-14T12:22:40.308Z,2.17
2022-08-14T12:25:13.816Z,2.28
2022-08-14T12:27:53.404Z,2.10
2022-08-14T12:30:42.444Z,1.80
2022-08-14T12:33:32.801Z,1.95
2022-08-14T12:36:06.357Z,1.95
2022-08-14T12:38:44.896Z,2.00
2022-08-14T12:41:20.467Z,1.90
2022-08-14T12:43:55.649Z,2.08
2022-08-14T12:46:27.187Z,2.10
2022-08-14T12:48:57.016Z,2.22
2022-08-14T12:51:27.279Z,2.25
2022-08-14T12:53:59.564Z,2.13
2022-08-14T12:56:32.715Z,1.90
2022-08-14T12:59:01.402Z,2.67
2022-08-14T13:01:31.111Z,3.80
2022-08-14T13:04:10.213Z,4.05
2022-08-14T13:06:37.731Z,3.58
2022-08-14T13:09:11.223Z,2.45
2022-08-14T13:11:46.577Z,2.00
2022-08-14T13:14:29.594Z,2.35
2022-08-14T13:16:58.562Z,1.80
2022-08-14T13:21:58.649Z,2.20
2022-08-14T13:24:34.029Z,2.97
2022-08-14T13:27:04.391Z,3.27
2022-08-14T13:29:32.184Z,3.50
2022-08-14T13:31:59.206Z,3.55
2022-08-14T13:34:28.819Z,3.40
2022-08-14T13:37:03.719Z,3.70
2022-08-14T13:39:36.396Z,2.72
2022-08-14T13:42:08.699Z,1.92
2022-08-14T13:44:41.882Z,2.10
2022-08-14T13:47:13.584Z,2.15
2022-08-14T13:49:57.966Z,2.05
2022-08-14T13:52:53.465Z,1.95
2022-08-14T13:55:14.150Z,1.73
2022-08-14T13:57:49.835Z,1.73
2022-08-14T14:00:33.073Z,1.80
2022-08-14T14:03:10.517Z,1.60
2022-08-14T14:05:52.725Z,2.07
2022-08-14T14:08:43.619Z,1.73
2022-08-14T14:11:10.003Z,1.60
2022-08-14T14:13:37.221Z,1.75
2022-08-14T14:16:11.805Z,1.80
2022-08-14T14:18:52.109Z,1.80
2022-08-14T14:21:21.792Z,1.85
2022-08-14T14:23:49.348Z,1.77
2022-08-14T14:26:23.082Z,1.90
2022-08-14T14:28:52.679Z,2.20
2022-08-14T14:31:30.306Z,1.80
2022-08-14T14:34:07.357Z,2.00
2022-08-14T14:36:41.606Z,2.00
2022-08-14T14:39:10.659Z,1.85
2022-08-14T14:41:43.973Z,1.90
2022-08-14T14:44:16.480Z,1.92
2022-08-14T14:46:46.251Z,2.00
2022-08-14T14:49:15.083Z,2.05
2022-08-14T14:51:44.577Z,2.00
2022-08-14T14:54:14.296Z,2.80
2022-08-14T14:56:47.804Z,8.55
2022-08-14T14:59:19.443Z,1.90
2022-08-14T15:01:50.896Z,2.53
2022-08-14T15:04:19.992Z,2.40
2022-08-14T15:06:49.097Z,2.47
2022-08-14T15:09:17.553Z,2.77
2022-08-14T15:11:46.057Z,2.20
2022-08-14T15:14:55.245Z,2.13
2022-08-14T15:17:02.118Z,2.28
2022-08-14T15:19:29.197Z,1.80
2022-08-14T15:21:57.053Z,2.25
2022-08-14T15:24:26.524Z,2.10
2022-08-14T15:26:58.574Z,1.80
2022-08-14T15:29:26.158Z,2.10
2022-08-14T15:31:54.002Z,2.22
2022-08-14T15:34:44.759Z,2.00
2022-08-14T15:37:10.896Z,2.00
2022-08-14T15:39:41.402Z,2.10
2022-08-14T15:42:15.769Z,2.10
2022-08-14T15:44:57.880Z,2.47
2022-08-14T15:47:30.635Z,2.42
2022-08-14T15:50:00.115Z,2.63
2022-08-14T15:52:35.430Z,2.53
2022-08-14T15:55:09.411Z,2.58
2022-08-14T15:57:37.299Z,2.38
2022-08-14T16:00:40.631Z,2.40
2022-08-14T16:03:15.552Z,2.30
2022-08-14T16:05:46.130Z,2.63
2022-08-14T16:08:27.282Z,2.50
2022-08-14T16:10:57.985Z,2.60
2022-08-14T16:13:41.398Z,2.40
2022-08-14T16:16:47.658Z,2.80
2022-08-14T16:19:09.727Z,2.70
2022-08-14T16:21:39.350Z,2.50
2022-08-14T16:24:06.576Z,2.42
2022-08-14T16:26:33.930Z,2.55
2022-08-14T16:29:09.350Z,2.80
2022-08-14T16:31:42.962Z,2.90
2022-08-14T16:34:45.031Z,2.50
2022-08-14T16:36:57.301Z,2.60
2022-08-14T16:39:24.616Z,2.60
2022-08-14T16:41:52.452Z,2.72
2022-08-14T16:44:31.730Z,2.80
2022-08-14T16:47:02.608Z,2.75
2022-08-14T16:50:03.552Z,2.65
2022-08-14T16:52:25.573Z,2.85
2022-08-14T16:57:34.190Z,2.42
2022-08-14T17:00:07.051Z,3.00
2022-08-14T17:02:45.005Z,3.08
2022-08-14T17:05:21.371Z,3.08
2022-08-14T17:08:32.653Z,3.00
2022-08-14T17:11:09.790Z,2.90
2022-08-14T17:13:59.065Z,2.80
2022-08-14T17:16:26.017Z,2.70
2022-08-14T17:19:00.586Z,2.90
2022-08-14T17:21:41.091Z,3.00
2022-08-14T17:24:51.622Z,2.97
2022-08-14T17:27:03.995Z,3.20
2022-08-14T17:29:33.227Z,2.70
2022-08-14T17:32:22.347Z,3.13
2022-08-14T17:34:57.707Z,2.92
2022-08-14T17:37:35.648Z,3.38
2022-08-14T17:40:35.501Z,3.00
2022-08-14T17:43:02.837Z,2.92
2022-08-14T17:45:41.510Z,2.75
2022-08-14T17:51:12.556Z,2.92
2022-08-14T17:53:53.027Z,2.70
2022-08-14T17:56:29.077Z,3.22
2022-08-14T17:59:02.802Z,2.72
2022-08-14T18:01:35.594Z,2.70
2022-08-14T18:04:05.684Z,2.60
2022-08-14T18:06:58.718Z,2.70
2022-08-14T18:09:56.491Z,2.83
2022-08-14T18:12:37.187Z,2.60
2022-08-14T18:15:15.957Z,2.70
2022-08-14T18:17:53.341Z,2.60
2022-08-14T18:21:23.785Z,2.25
2022-08-14T18:23:13.317Z,2.40
2022-08-14T18:25:48.388Z,2.60
2022-08-14T18:28:18.340Z,2.40
2022-08-14T18:31:23.122Z,2.42
2022-08-14T18:33:54.521Z,2.50
2022-08-14T18:36:46.764Z,2.72
2022-08-14T18:39:33.972Z,2.60
2022-08-14T18:42:22.982Z,2.80
2022-08-14T18:44:50.262Z,2.60
2022-08-14T18:47:17.659Z,2.67
2022-08-14T18:50:03.955Z,2.50
2022-08-14T18:52:52.017Z,2.90
2022-08-14T18:55:18.984Z,2.60
2022-08-14T19:00:39.981Z,2.55
2022-08-14T19:03:07.839Z,2.92
2022-08-14T19:05:37.909Z,2.78
2022-08-14T19:08:25.324Z,3.28
2022-08-14T19:11:00.791Z,2.60
2022-08-14T19:13:48.383Z,2.85
2022-08-14T19:16:22.776Z,2.70
2022-08-14T19:18:50.714Z,2.50
2022-08-14T19:21:31.691Z,2.60
2022-08-14T19:24:29.230Z,2.70
2022-08-14T19:27:19.438Z,2.33
2022-08-14T19:29:51.322Z,2.60
2022-08-14T19:32:36.618Z,3.17
2022-08-14T19:35:17.046Z,2.78
2022-08-14T19:37:52.510Z,2.95
2022-08-14T19:40:38.549Z,2.95
2022-08-14T19:43:06.576Z,3.30
2022-08-14T19:45:34.207Z,2.92
2022-08-14T19:48:02.678Z,2.60
2022-08-14T19:50:38.966Z,3.47
2022-08-14T19:53:16.946Z,2.78
2022-08-14T19:55:55.262Z,2.80
2022-08-14T19:58:29.957Z,3.00
2022-08-14T20:00:58.163Z,2.90
2022-08-14T20:03:26.630Z,3.13
2022-08-14T20:06:13.677Z,3.77
2022-08-14T20:11:00.004Z,3.00
2022-08-14T20:11:44.632Z,3.10
2022-08-14T20:14:29.683Z,3.28
2022-08-14T20:17:06.331Z,3.40
2022-08-14T20:19:37.429Z,3.17
2022-08-14T20:22:36.257Z,3.70
2022-08-14T20:24:56.633Z,3.47
2022-08-14T20:27:34.187Z,3.50
2022-08-14T20:30:29.802Z,3.45
2022-08-14T20:33:08.038Z,3.50
2022-08-14T20:35:49.242Z,3.63
2022-08-14T20:38:29.464Z,4.03
2022-08-14T20:41:06.027Z,3.90
2022-08-14T20:43:55.094Z,3.63
2022-08-14T20:46:29.375Z,3.90
2022-08-14T20:49:04.927Z,4.28
2022-08-14T20:51:47.305Z,4.00
2022-08-14T20:54:34.170Z,4.30
2022-08-14T20:57:12.098Z,4.68
2022-08-14T20:59:45.636Z,4.78
2022-08-14T21:02:34.293Z,4.90
2022-08-14T21:05:16.848Z,4.65
2022-08-14T21:07:51.399Z,4.85
2022-08-14T21:10:34.146Z,4.97
2022-08-14T21:13:26.155Z,5.72
2022-08-14T21:15:58.037Z,5.00
2022-08-14T21:18:28.855Z,5.18
2022-08-14T21:20:57.190Z,5.05
2022-08-14T21:23:24.283Z,5.30
2022-08-14T21:25:51.308Z,4.65
2022-08-14T21:28:29.195Z,4.18
2022-08-14T21:33:24.862Z,4.55
2022-08-14T21:35:54.938Z,4.68
2022-08-14T21:38:33.590Z,5.38
2022-08-14T21:41:02.253Z,5.30
2022-08-14T21:43:59.410Z,4.70
2022-08-14T21:46:28.559Z,5.30
2022-08-14T21:48:55.946Z,4.97
2022-08-14T21:51:54.719Z,5.38
2022-08-14T21:54:32.177Z,5.10
2022-08-14T21:56:58.026Z,4.57
2022-08-14T21:59:28.992Z,4.05
2022-08-14T22:02:01.946Z,4.40
2022-08-14T22:04:41.241Z,4.30
2022-08-14T22:07:10.977Z,4.53
2022-08-14T22:09:42.719Z,5.22
2022-08-14T22:12:10.583Z,4.80
2022-08-14T22:14:43.221Z,4.70
2022-08-14T22:17:16.334Z,4.85
2022-08-14T22:19:54.502Z,4.68
2022-08-14T22:22:23.896Z,4.53
2022-08-14T22:25:00.340Z,4.22
2022-08-14T22:27:32.254Z,4.82
2022-08-14T22:30:00.552Z,4.20
2022-08-14T22:32:35.006Z,3.97
2022-08-14T22:35:03.150Z,4.20
2022-08-14T22:37:36.724Z,3.88
2022-08-14T22:40:45.950Z,4.07
2022-08-14T22:43:00.460Z,4.10
2022-08-14T22:45:36.397Z,3.80
2022-08-14T22:48:11.075Z,3.97
2022-08-14T22:50:49.212Z,3.88
2022-08-14T22:53:21.953Z,3.92
2022-08-14T22:55:52.058Z,4.00
2022-08-14T22:58:30.227Z,3.72
2022-08-14T23:03:27.307Z,3.58
2022-08-14T23:05:55.819Z,3.70
2022-08-14T23:09:00.464Z,3.92
2022-08-14T23:11:10.524Z,3.58
2022-08-14T23:13:39.165Z,3.78
2022-08-14T23:16:06.943Z,3.50
2022-08-14T23:18:34.654Z,3.30
2022-08-14T23:21:01.963Z,3.40
2022-08-14T23:23:28.993Z,3.70
2022-08-14T23:26:00.435Z,3.80
2022-08-14T23:28:58.239Z,3.90
2022-08-14T23:31:34.630Z,3.72
2022-08-14T23:34:07.115Z,3.55
2022-08-14T23:36:38.089Z,4.07
2022-08-14T23:39:21.316Z,3.72
2022-08-14T23:41:53.672Z,3.55
2022-08-14T23:44:22.120Z,3.83
2022-08-14T23:46:52.481Z,3.60
2022-08-14T23:49:24.940Z,3.45
2022-08-14T23:52:50.941Z,3.58
2022-08-14T23:54:48.695Z,3.95
2022-08-14T23:57:19.344Z,3.33
2022-08-14T23:59:54.875Z,3.47
